sensor_id;sensor_type;location;lat;lon;timestamp;P1;durP1;ratioP1;P2;durP2;ratioP2
75894;SDS011;64573;50.328;15.014;2024-03-22T00:01:04;12.80;;;5.63;;
75894;SDS011;64573;50.328;15.014;2024-03-22T00:03:29;11.88;;;5.55;;
75894;SDS011;64573;50.328;15.014;2024-03-22T00:05:55;13.82;;;5.72;;
75894;SDS011;64573;50.328;15.014;2024-03-22T00:08:20;14.73;;;5.55;;
75894;SDS011;64573;50.328;15.014;2024-03-22T00:10:45;12.70;;;5.60;;
75894;SDS011;64573;50.328;15.014;2024-03-22T00:13:11;10.32;;;5.50;;
75894;SDS011;64573;50.328;15.014;2024-03-22T00:15:36;12.23;;;6.10;;
75894;SDS011;64573;50.328;15.014;2024-03-22T00:18:02;12.57;;;6.50;;
75894;SDS011;64573;50.328;15.014;2024-03-22T00:20:27;16.05;;;7.13;;
75894;SDS011;64573;50.328;15.014;2024-03-22T00:22:52;15.38;;;7.20;;
75894;SDS011;64573;50.328;15.014;2024-03-22T00:25:18;15.52;;;6.70;;
75894;SDS011;64573;50.328;15.014;2024-03-22T00:27:43;15.60;;;6.25;;
75894;SDS011;64573;50.328;15.014;2024-03-22T00:30:08;15.73;;;6.57;;
75894;SDS011;64573;50.328;15.014;2024-03-22T00:32:34;12.52;;;5.53;;
75894;SDS011;64573;50.328;15.014;2024-03-22T00:34:59;14.18;;;5.97;;
75894;SDS011;64573;50.328;15.014;2024-03-22T00:37:24;14.65;;;6.05;;
75894;SDS011;64573;50.328;15.014;2024-03-22T00:39:50;12.88;;;5.78;;
75894;SDS011;64573;50.328;15.014;2024-03-22T00:42:15;14.23;;;6.10;;
75894;SDS011;64573;50.328;15.014;2024-03-22T00:44:40;14.60;;;6.30;;
75894;SDS011;64573;50.328;15.014;2024-03-22T00:47:06;18.90;;;7.13;;
75894;SDS011;64573;50.328;15.014;2024-03-22T00:49:31;16.65;;;6.40;;
75894;SDS011;64573;50.328;15.014;2024-03-22T00:51:57;13.65;;;6.55;;
75894;SDS011;64573;50.328;15.014;2024-03-22T00:54:22;18.70;;;7.07;;
75894;SDS011;64573;50.328;15.014;2024-03-22T00:56:48;13.57;;;5.72;;
75894;SDS011;64573;50.328;15.014;2024-03-22T00:59:13;14.32;;;6.38;;
75894;SDS011;64573;50.328;15.014;2024-03-22T01:01:38;15.45;;;6.15;;
75894;SDS011;64573;50.328;15.014;2024-03-22T01:04:04;14.05;;;6.53;;
75894;SDS011;64573;50.328;15.014;2024-03-22T01:06:29;16.25;;;6.78;;
75894;SDS011;64573;50.328;15.014;2024-03-22T01:08:55;13.90;;;6.40;;
75894;SDS011;64573;50.328;15.014;2024-03-22T01:11:20;14.90;;;6.32;;
75894;SDS011;64573;50.328;15.014;2024-03-22T01:13:45;12.60;;;5.80;;
75894;SDS011;64573;50.328;15.014;2024-03-22T01:16:11;12.60;;;5.68;;
75894;SDS011;64573;50.328;15.014;2024-03-22T01:18:36;13.55;;;5.97;;
75894;SDS011;64573;50.328;15.014;2024-03-22T01:21:02;15.82;;;6.30;;
75894;SDS011;64573;50.328;15.014;2024-03-22T01:23:27;14.07;;;6.20;;
75894;SDS011;64573;50.328;15.014;2024-03-22T01:25:53;14.93;;;6.07;;
75894;SDS011;64573;50.328;15.014;2024-03-22T01:28:18;13.10;;;5.68;;
75894;SDS011;64573;50.328;15.014;2024-03-22T01:30:44;12.20;;;5.78;;
75894;SDS011;64573;50.328;15.014;2024-03-22T01:33:09;14.57;;;6.28;;
75894;SDS011;64573;50.328;15.014;2024-03-22T01:35:34;13.98;;;5.72;;
75894;SDS011;64573;50.328;15.014;2024-03-22T01:37:59;15.82;;;6.72;;
75894;SDS011;64573;50.328;15.014;2024-03-22T01:40:25;12.45;;;5.50;;
75894;SDS011;64573;50.328;15.014;2024-03-22T01:42:53;14.75;;;5.93;;
75894;SDS011;64573;50.328;15.014;2024-03-22T01:45:21;11.30;;;5.15;;
75894;SDS011;64573;50.328;15.014;2024-03-22T01:47:49;13.23;;;5.88;;
75894;SDS011;64573;50.328;15.014;2024-03-22T01:50:15;11.27;;;5.05;;
75894;SDS011;64573;50.328;15.014;2024-03-22T01:52:41;10.65;;;5.07;;
75894;SDS011;64573;50.328;15.014;2024-03-22T01:55:06;10.70;;;4.57;;
75894;SDS011;64573;50.328;15.014;2024-03-22T01:57:33;10.88;;;4.88;;
75894;SDS011;64573;50.328;15.014;2024-03-22T01:59:59;13.45;;;5.07;;
75894;SDS011;64573;50.328;15.014;2024-03-22T02:02:25;10.93;;;5.15;;
75894;SDS011;64573;50.328;15.014;2024-03-22T02:04:50;9.75;;;4.25;;
75894;SDS011;64573;50.328;15.014;2024-03-22T02:07:16;9.50;;;4.40;;
75894;SDS011;64573;50.328;15.014;2024-03-22T02:09:42;9.73;;;4.20;;
75894;SDS011;64573;50.328;15.014;2024-03-22T02:12:08;10.75;;;4.95;;
75894;SDS011;64573;50.328;15.014;2024-03-22T02:14:34;12.25;;;4.57;;
75894;SDS011;64573;50.328;15.014;2024-03-22T02:16:59;12.45;;;5.15;;
75894;SDS011;64573;50.328;15.014;2024-03-22T02:19:24;7.85;;;4.45;;
75894;SDS011;64573;50.328;15.014;2024-03-22T02:21:50;9.35;;;4.35;;
75894;SDS011;64573;50.328;15.014;2024-03-22T02:24:15;11.05;;;4.65;;
75894;SDS011;64573;50.328;15.014;2024-03-22T02:26:40;12.40;;;4.40;;
75894;SDS011;64573;50.328;15.014;2024-03-22T02:29:05;10.18;;;4.40;;
75894;SDS011;64573;50.328;15.014;2024-03-22T02:31:31;8.93;;;4.32;;
75894;SDS011;64573;50.328;15.014;2024-03-22T02:33:57;11.23;;;4.38;;
75894;SDS011;64573;50.328;15.014;2024-03-22T02:36:23;11.27;;;4.85;;
75894;SDS011;64573;50.328;15.014;2024-03-22T02:38:48;9.38;;;4.43;;
75894;SDS011;64573;50.328;15.014;2024-03-22T02:41:13;10.75;;;4.75;;
75894;SDS011;64573;50.328;15.014;2024-03-22T02:43:39;11.57;;;4.47;;
75894;SDS011;64573;50.328;15.014;2024-03-22T02:46:04;8.70;;;4.22;;
75894;SDS011;64573;50.328;15.014;2024-03-22T02:48:29;7.68;;;3.72;;
75894;SDS011;64573;50.328;15.014;2024-03-22T02:50:56;8.93;;;4.53;;
75894;SDS011;64573;50.328;15.014;2024-03-22T02:53:22;9.18;;;4.45;;
75894;SDS011;64573;50.328;15.014;2024-03-22T02:55:47;7.30;;;3.47;;
75894;SDS011;64573;50.328;15.014;2024-03-22T02:58:13;9.30;;;3.85;;
75894;SDS011;64573;50.328;15.014;2024-03-22T03:00:39;9.48;;;4.35;;
75894;SDS011;64573;50.328;15.014;2024-03-22T03:03:04;7.70;;;3.90;;
75894;SDS011;64573;50.328;15.014;2024-03-22T03:05:30;9.40;;;4.50;;
75894;SDS011;64573;50.328;15.014;2024-03-22T03:07:56;8.05;;;4.03;;
75894;SDS011;64573;50.328;15.014;2024-03-22T03:10:21;8.80;;;4.25;;
75894;SDS011;64573;50.328;15.014;2024-03-22T03:12:46;8.73;;;3.90;;
75894;SDS011;64573;50.328;15.014;2024-03-22T03:15:11;9.05;;;4.25;;
75894;SDS011;64573;50.328;15.014;2024-03-22T03:17:37;9.80;;;4.95;;
75894;SDS011;64573;50.328;15.014;2024-03-22T03:20:02;9.32;;;4.30;;
75894;SDS011;64573;50.328;15.014;2024-03-22T03:22:32;9.40;;;4.38;;
75894;SDS011;64573;50.328;15.014;2024-03-22T03:24:58;6.93;;;3.85;;
75894;SDS011;64573;50.328;15.014;2024-03-22T03:27:24;8.25;;;4.25;;
75894;SDS011;64573;50.328;15.014;2024-03-22T03:29:49;9.13;;;4.25;;
75894;SDS011;64573;50.328;15.014;2024-03-22T03:32:14;10.30;;;4.88;;
75894;SDS011;64573;50.328;15.014;2024-03-22T03:34:40;9.60;;;4.60;;
75894;SDS011;64573;50.328;15.014;2024-03-22T03:37:05;10.00;;;4.63;;
75894;SDS011;64573;50.328;15.014;2024-03-22T03:39:30;10.13;;;4.70;;
75894;SDS011;64573;50.328;15.014;2024-03-22T03:41:55;11.55;;;4.97;;
75894;SDS011;64573;50.328;15.014;2024-03-22T03:44:21;10.02;;;4.75;;
75894;SDS011;64573;50.328;15.014;2024-03-22T03:46:46;9.93;;;4.57;;
75894;SDS011;64573;50.328;15.014;2024-03-22T03:49:11;9.95;;;4.95;;
75894;SDS011;64573;50.328;15.014;2024-03-22T03:51:37;11.65;;;5.13;;
75894;SDS011;64573;50.328;15.014;2024-03-22T03:54:02;12.90;;;5.43;;
75894;SDS011;64573;50.328;15.014;2024-03-22T03:56:28;12.82;;;6.07;;
75894;SDS011;64573;50.328;15.014;2024-03-22T03:58:53;16.40;;;5.88;;
75894;SDS011;64573;50.328;15.014;2024-03-22T04:01:19;16.55;;;6.22;;
75894;SDS011;64573;50.328;15.014;2024-03-22T04:03:44;15.30;;;6.15;;
75894;SDS011;64573;50.328;15.014;2024-03-22T04:06:10;19.08;;;7.18;;
75894;SDS011;64573;50.328;15.014;2024-03-22T04:08:35;14.88;;;6.53;;
75894;SDS011;64573;50.328;15.014;2024-03-22T04:11:00;14.30;;;6.65;;
75894;SDS011;64573;50.328;15.014;2024-03-22T04:13:26;17.88;;;7.20;;
75894;SDS011;64573;50.328;15.014;2024-03-22T04:15:52;14.40;;;6.40;;
75894;SDS011;64573;50.328;15.014;2024-03-22T04:18:18;16.23;;;6.57;;
75894;SDS011;64573;50.328;15.014;2024-03-22T04:20:56;17.58;;;6.93;;
75894;SDS011;64573;50.328;15.014;2024-03-22T04:23:23;16.35;;;7.65;;
75894;SDS011;64573;50.328;15.014;2024-03-22T04:25:58;16.23;;;6.43;;
75894;SDS011;64573;50.328;15.014;2024-03-22T04:28:25;15.68;;;6.82;;
75894;SDS011;64573;50.328;15.014;2024-03-22T04:31:01;16.35;;;6.97;;
75894;SDS011;64573;50.328;15.014;2024-03-22T04:33:28;15.32;;;6.18;;
75894;SDS011;64573;50.328;15.014;2024-03-22T04:35:55;17.48;;;7.07;;
75894;SDS011;64573;50.328;15.014;2024-03-22T04:38:25;17.38;;;7.53;;
75894;SDS011;64573;50.328;15.014;2024-03-22T04:40:51;19.67;;;7.47;;
75894;SDS011;64573;50.328;15.014;2024-03-22T04:43:16;17.80;;;7.38;;
75894;SDS011;64573;50.328;15.014;2024-03-22T04:45:42;17.40;;;7.47;;
75894;SDS011;64573;50.328;15.014;2024-03-22T04:48:08;20.40;;;8.45;;
75894;SDS011;64573;50.328;15.014;2024-03-22T04:50:34;19.50;;;7.75;;
75894;SDS011;64573;50.328;15.014;2024-03-22T04:53:00;23.33;;;7.50;;
75894;SDS011;64573;50.328;15.014;2024-03-22T04:55:25;19.58;;;8.45;;
75894;SDS011;64573;50.328;15.014;2024-03-22T04:57:51;17.42;;;7.20;;
75894;SDS011;64573;50.328;15.014;2024-03-22T05:00:17;17.98;;;8.60;;
75894;SDS011;64573;50.328;15.014;2024-03-22T05:02:43;21.10;;;8.10;;
75894;SDS011;64573;50.328;15.014;2024-03-22T05:05:08;20.83;;;8.55;;
75894;SDS011;64573;50.328;15.014;2024-03-22T05:07:34;20.27;;;8.68;;
75894;SDS011;64573;50.328;15.014;2024-03-22T05:10:00;20.98;;;8.63;;
75894;SDS011;64573;50.328;15.014;2024-03-22T05:12:25;26.48;;;10.10;;
75894;SDS011;64573;50.328;15.014;2024-03-22T05:14:51;25.60;;;9.98;;
75894;SDS011;64573;50.328;15.014;2024-03-22T05:17:16;30.33;;;9.85;;
75894;SDS011;64573;50.328;15.014;2024-03-22T05:19:41;23.95;;;9.65;;
75894;SDS011;64573;50.328;15.014;2024-03-22T05:22:07;25.15;;;9.75;;
75894;SDS011;64573;50.328;15.014;2024-03-22T05:24:32;30.90;;;10.60;;
75894;SDS011;64573;50.328;15.014;2024-03-22T05:26:58;25.20;;;10.20;;
75894;SDS011;64573;50.328;15.014;2024-03-22T05:29:23;25.90;;;9.65;;
75894;SDS011;64573;50.328;15.014;2024-03-22T05:31:49;24.92;;;9.93;;
75894;SDS011;64573;50.328;15.014;2024-03-22T05:34:16;21.45;;;9.07;;
75894;SDS011;64573;50.328;15.014;2024-03-22T05:36:42;25.08;;;10.00;;
75894;SDS011;64573;50.328;15.014;2024-03-22T05:39:08;25.27;;;9.77;;
75894;SDS011;64573;50.328;15.014;2024-03-22T05:41:35;28.98;;;10.90;;
75894;SDS011;64573;50.328;15.014;2024-03-22T05:44:01;22.08;;;9.60;;
75894;SDS011;64573;50.328;15.014;2024-03-22T05:46:26;25.80;;;10.52;;
75894;SDS011;64573;50.328;15.014;2024-03-22T05:48:51;24.83;;;10.52;;
75894;SDS011;64573;50.328;15.014;2024-03-22T05:51:17;21.77;;;8.95;;
75894;SDS011;64573;50.328;15.014;2024-03-22T05:53:42;23.98;;;10.25;;
75894;SDS011;64573;50.328;15.014;2024-03-22T05:56:08;26.70;;;9.93;;
75894;SDS011;64573;50.328;15.014;2024-03-22T05:58:34;24.83;;;10.73;;
75894;SDS011;64573;50.328;15.014;2024-03-22T06:00:59;26.70;;;10.75;;
75894;SDS011;64573;50.328;15.014;2024-03-22T06:03:24;23.13;;;9.30;;
75894;SDS011;64573;50.328;15.014;2024-03-22T06:05:50;22.02;;;9.73;;
75894;SDS011;64573;50.328;15.014;2024-03-22T06:08:20;20.98;;;9.07;;
75894;SDS011;64573;50.328;15.014;2024-03-22T06:10:46;20.42;;;8.77;;
75894;SDS011;64573;50.328;15.014;2024-03-22T06:13:11;24.58;;;11.00;;
75894;SDS011;64573;50.328;15.014;2024-03-22T06:15:36;23.75;;;10.82;;
75894;SDS011;64573;50.328;15.014;2024-03-22T06:18:02;24.88;;;10.77;;
75894;SDS011;64573;50.328;15.014;2024-03-22T06:20:27;23.25;;;10.20;;
75894;SDS011;64573;50.328;15.014;2024-03-22T06:22:52;19.33;;;8.73;;
75894;SDS011;64573;50.328;15.014;2024-03-22T06:25:18;22.48;;;10.43;;
75894;SDS011;64573;50.328;15.014;2024-03-22T06:27:43;23.55;;;11.45;;
75894;SDS011;64573;50.328;15.014;2024-03-22T06:30:08;21.48;;;10.98;;
75894;SDS011;64573;50.328;15.014;2024-03-22T06:32:34;22.83;;;10.60;;
75894;SDS011;64573;50.328;15.014;2024-03-22T06:34:59;24.52;;;10.55;;
75894;SDS011;64573;50.328;15.014;2024-03-22T06:37:25;26.08;;;11.70;;
75894;SDS011;64573;50.328;15.014;2024-03-22T06:39:50;22.65;;;10.95;;
75894;SDS011;64573;50.328;15.014;2024-03-22T06:42:15;22.83;;;10.70;;
75894;SDS011;64573;50.328;15.014;2024-03-22T06:44:41;21.77;;;10.65;;
75894;SDS011;64573;50.328;15.014;2024-03-22T06:47:06;21.90;;;10.80;;
75894;SDS011;64573;50.328;15.014;2024-03-22T06:49:31;19.23;;;9.65;;
75894;SDS011;64573;50.328;15.014;2024-03-22T06:51:57;22.85;;;10.88;;
75894;SDS011;64573;50.328;15.014;2024-03-22T06:54:22;21.40;;;10.75;;
75894;SDS011;64573;50.328;15.014;2024-03-22T06:56:48;20.42;;;10.35;;
75894;SDS011;64573;50.328;15.014;2024-03-22T06:59:13;20.10;;;10.73;;
75894;SDS011;64573;50.328;15.014;2024-03-22T07:01:38;20.00;;;9.95;;
75894;SDS011;64573;50.328;15.014;2024-03-22T07:04:04;18.35;;;9.38;;
75894;SDS011;64573;50.328;15.014;2024-03-22T07:06:29;18.20;;;10.02;;
75894;SDS011;64573;50.328;15.014;2024-03-22T07:08:55;20.90;;;10.25;;
75894;SDS011;64573;50.328;15.014;2024-03-22T07:11:21;15.73;;;8.15;;
75894;SDS011;64573;50.328;15.014;2024-03-22T07:13:47;15.93;;;8.55;;
75894;SDS011;64573;50.328;15.014;2024-03-22T07:16:12;18.45;;;8.68;;
75894;SDS011;64573;50.328;15.014;2024-03-22T07:18:38;18.95;;;9.63;;
75894;SDS011;64573;50.328;15.014;2024-03-22T07:21:03;18.80;;;8.93;;
75894;SDS011;64573;50.328;15.014;2024-03-22T07:23:29;19.92;;;8.77;;
75894;SDS011;64573;50.328;15.014;2024-03-22T07:25:55;17.45;;;8.55;;
75894;SDS011;64573;50.328;15.014;2024-03-22T07:28:20;14.93;;;9.10;;
75894;SDS011;64573;50.328;15.014;2024-03-22T07:30:46;17.38;;;9.20;;
75894;SDS011;64573;50.328;15.014;2024-03-22T07:33:12;16.10;;;8.90;;
75894;SDS011;64573;50.328;15.014;2024-03-22T07:35:42;16.77;;;8.48;;
75894;SDS011;64573;50.328;15.014;2024-03-22T07:38:08;19.45;;;9.15;;
75894;SDS011;64573;50.328;15.014;2024-03-22T07:40:34;15.38;;;8.27;;
75894;SDS011;64573;50.328;15.014;2024-03-22T07:42:59;15.30;;;8.38;;
75894;SDS011;64573;50.328;15.014;2024-03-22T07:45:24;14.95;;;7.22;;
75894;SDS011;64573;50.328;15.014;2024-03-22T07:47:50;11.27;;;6.40;;
75894;SDS011;64573;50.328;15.014;2024-03-22T07:50:16;11.88;;;6.88;;
75894;SDS011;64573;50.328;15.014;2024-03-22T07:52:42;11.20;;;7.20;;
75894;SDS011;64573;50.328;15.014;2024-03-22T07:55:07;13.13;;;7.07;;
75894;SDS011;64573;50.328;15.014;2024-03-22T07:57:32;13.32;;;7.25;;
75894;SDS011;64573;50.328;15.014;2024-03-22T07:59:58;13.15;;;6.85;;
75894;SDS011;64573;50.328;15.014;2024-03-22T08:02:23;11.40;;;6.32;;
75894;SDS011;64573;50.328;15.014;2024-03-22T08:04:49;11.10;;;6.85;;
75894;SDS011;64573;50.328;15.014;2024-03-22T08:07:14;9.90;;;5.65;;
75894;SDS011;64573;50.328;15.014;2024-03-22T08:09:39;9.68;;;6.22;;
75894;SDS011;64573;50.328;15.014;2024-03-22T08:12:05;9.40;;;5.28;;
75894;SDS011;64573;50.328;15.014;2024-03-22T08:14:31;9.30;;;5.22;;
75894;SDS011;64573;50.328;15.014;2024-03-22T08:16:56;10.35;;;5.35;;
75894;SDS011;64573;50.328;15.014;2024-03-22T08:19:22;7.95;;;5.28;;
75894;SDS011;64573;50.328;15.014;2024-03-22T08:21:47;9.55;;;4.88;;
75894;SDS011;64573;50.328;15.014;2024-03-22T08:24:13;8.82;;;4.30;;
75894;SDS011;64573;50.328;15.014;2024-03-22T08:26:38;10.23;;;4.90;;
75894;SDS011;64573;50.328;15.014;2024-03-22T08:29:04;8.98;;;5.32;;
75894;SDS011;64573;50.328;15.014;2024-03-22T08:31:30;8.27;;;5.10;;
75894;SDS011;64573;50.328;15.014;2024-03-22T08:36:24;7.82;;;5.22;;
75894;SDS011;64573;50.328;15.014;2024-03-22T08:38:50;7.63;;;4.90;;
75894;SDS011;64573;50.328;15.014;2024-03-22T08:41:16;7.97;;;4.53;;
75894;SDS011;64573;50.328;15.014;2024-03-22T08:43:41;5.68;;;3.83;;
75894;SDS011;64573;50.328;15.014;2024-03-22T08:46:06;5.85;;;3.85;;
75894;SDS011;64573;50.328;15.014;2024-03-22T08:48:32;7.20;;;3.75;;
75894;SDS011;64573;50.328;15.014;2024-03-22T08:50:57;5.85;;;3.60;;
75894;SDS011;64573;50.328;15.014;2024-03-22T08:53:22;6.22;;;3.72;;
75894;SDS011;64573;50.328;15.014;2024-03-22T08:55:48;6.28;;;4.10;;
75894;SDS011;64573;50.328;15.014;2024-03-22T08:58:14;9.68;;;4.22;;
75894;SDS011;64573;50.328;15.014;2024-03-22T09:00:43;5.47;;;3.75;;
75894;SDS011;64573;50.328;15.014;2024-03-22T09:03:08;7.75;;;3.92;;
75894;SDS011;64573;50.328;15.014;2024-03-22T09:05:34;10.85;;;3.85;;
75894;SDS011;64573;50.328;15.014;2024-03-22T09:07:59;5.40;;;3.67;;
75894;SDS011;64573;50.328;15.014;2024-03-22T09:10:25;7.38;;;3.65;;
75894;SDS011;64573;50.328;15.014;2024-03-22T09:12:51;5.50;;;3.67;;
75894;SDS011;64573;50.328;15.014;2024-03-22T09:15:17;6.72;;;3.58;;
75894;SDS011;64573;50.328;15.014;2024-03-22T09:17:42;5.93;;;3.55;;
75894;SDS011;64573;50.328;15.014;2024-03-22T09:20:07;6.55;;;3.70;;
75894;SDS011;64573;50.328;15.014;2024-03-22T09:22:33;6.13;;;4.03;;
75894;SDS011;64573;50.328;15.014;2024-03-22T09:24:59;8.45;;;3.72;;
75894;SDS011;64573;50.328;15.014;2024-03-22T09:27:24;6.95;;;3.70;;
75894;SDS011;64573;50.328;15.014;2024-03-22T09:29:50;5.05;;;3.08;;
75894;SDS011;64573;50.328;15.014;2024-03-22T09:32:15;7.90;;;3.40;;
75894;SDS011;64573;50.328;15.014;2024-03-22T09:34:40;4.30;;;3.00;;
75894;SDS011;64573;50.328;15.014;2024-03-22T09:37:07;4.18;;;2.35;;
75894;SDS011;64573;50.328;15.014;2024-03-22T09:39:33;4.53;;;2.50;;
75894;SDS011;64573;50.328;15.014;2024-03-22T09:41:59;5.50;;;2.05;;
75894;SDS011;64573;50.328;15.014;2024-03-22T09:44:28;5.88;;;2.42;;
75894;SDS011;64573;50.328;15.014;2024-03-22T09:46:54;7.68;;;3.10;;
75894;SDS011;64573;50.328;15.014;2024-03-22T09:49:21;4.18;;;2.33;;
75894;SDS011;64573;50.328;15.014;2024-03-22T09:51:48;5.25;;;2.17;;
75894;SDS011;64573;50.328;15.014;2024-03-22T09:54:14;5.30;;;2.70;;
75894;SDS011;64573;50.328;15.014;2024-03-22T09:56:40;3.92;;;2.50;;
75894;SDS011;64573;50.328;15.014;2024-03-22T09:59:07;5.00;;;2.45;;
75894;SDS011;64573;50.328;15.014;2024-03-22T10:01:37;4.10;;;2.50;;
75894;SDS011;64573;50.328;15.014;2024-03-22T10:04:05;4.97;;;2.67;;
75894;SDS011;64573;50.328;15.014;2024-03-22T10:06:34;4.82;;;2.60;;
75894;SDS011;64573;50.328;15.014;2024-03-22T10:09:00;5.53;;;3.22;;
75894;SDS011;64573;50.328;15.014;2024-03-22T10:11:26;4.97;;;2.97;;
75894;SDS011;64573;50.328;15.014;2024-03-22T10:13:52;6.43;;;3.30;;
75894;SDS011;64573;50.328;15.014;2024-03-22T10:16:17;9.20;;;2.90;;
75894;SDS011;64573;50.328;15.014;2024-03-22T10:18:43;6.35;;;2.83;;
75894;SDS011;64573;50.328;15.014;2024-03-22T10:21:09;7.30;;;3.25;;
75894;SDS011;64573;50.328;15.014;2024-03-22T10:23:34;6.38;;;3.10;;
75894;SDS011;64573;50.328;15.014;2024-03-22T10:26:00;9.30;;;3.30;;
75894;SDS011;64573;50.328;15.014;2024-03-22T10:28:26;5.47;;;3.20;;
75894;SDS011;64573;50.328;15.014;2024-03-22T10:30:52;5.13;;;2.85;;
75894;SDS011;64573;50.328;15.014;2024-03-22T10:33:18;5.30;;;3.20;;
75894;SDS011;64573;50.328;15.014;2024-03-22T10:35:51;7.07;;;3.88;;
75894;SDS011;64573;50.328;15.014;2024-03-22T10:38:21;5.40;;;3.25;;
75894;SDS011;64573;50.328;15.014;2024-03-22T10:40:47;9.27;;;3.20;;
75894;SDS011;64573;50.328;15.014;2024-03-22T10:43:14;6.88;;;3.80;;
75894;SDS011;64573;50.328;15.014;2024-03-22T10:45:40;8.15;;;3.45;;
75894;SDS011;64573;50.328;15.014;2024-03-22T10:48:08;6.63;;;3.50;;
75894;SDS011;64573;50.328;15.014;2024-03-22T10:50:37;6.18;;;3.08;;
75894;SDS011;64573;50.328;15.014;2024-03-22T10:53:04;5.35;;;3.25;;
75894;SDS011;64573;50.328;15.014;2024-03-22T10:55:36;6.40;;;3.60;;
75894;SDS011;64573;50.328;15.014;2024-03-22T10:58:04;5.35;;;3.05;;
75894;SDS011;64573;50.328;15.014;2024-03-22T11:00:30;6.72;;;3.80;;
75894;SDS011;64573;50.328;15.014;2024-03-22T11:02:57;7.45;;;3.92;;
75894;SDS011;64573;50.328;15.014;2024-03-22T11:05:23;8.23;;;3.60;;
75894;SDS011;64573;50.328;15.014;2024-03-22T11:08:02;7.57;;;3.80;;
75894;SDS011;64573;50.328;15.014;2024-03-22T11:10:29;6.38;;;3.50;;
75894;SDS011;64573;50.328;15.014;2024-03-22T11:13:01;8.45;;;3.88;;
75894;SDS011;64573;50.328;15.014;2024-03-22T11:15:32;7.43;;;3.47;;
75894;SDS011;64573;50.328;15.014;2024-03-22T11:17:58;5.90;;;3.53;;
75894;SDS011;64573;50.328;15.014;2024-03-22T11:20:27;6.03;;;3.40;;
75894;SDS011;64573;50.328;15.014;2024-03-22T11:22:53;7.00;;;3.90;;
75894;SDS011;64573;50.328;15.014;2024-03-22T11:25:19;6.32;;;3.90;;
75894;SDS011;64573;50.328;15.014;2024-03-22T11:27:48;6.25;;;3.42;;
75894;SDS011;64573;50.328;15.014;2024-03-22T11:30:15;7.50;;;4.00;;
75894;SDS011;64573;50.328;15.014;2024-03-22T11:32:40;7.00;;;3.67;;
75894;SDS011;64573;50.328;15.014;2024-03-22T11:35:10;8.60;;;4.40;;
75894;SDS011;64573;50.328;15.014;2024-03-22T11:37:36;13.95;;;4.43;;
75894;SDS011;64573;50.328;15.014;2024-03-22T11:40:06;8.85;;;3.75;;
75894;SDS011;64573;50.328;15.014;2024-03-22T11:42:35;7.20;;;3.90;;
75894;SDS011;64573;50.328;15.014;2024-03-22T11:45:05;7.07;;;3.80;;
75894;SDS011;64573;50.328;15.014;2024-03-22T11:47:33;5.82;;;3.33;;
75894;SDS011;64573;50.328;15.014;2024-03-22T11:49:58;6.22;;;3.47;;
75894;SDS011;64573;50.328;15.014;2024-03-22T11:52:27;7.10;;;3.85;;
75894;SDS011;64573;50.328;15.014;2024-03-22T11:54:53;8.10;;;4.28;;
75894;SDS011;64573;50.328;15.014;2024-03-22T11:57:20;6.53;;;3.72;;
75894;SDS011;64573;50.328;15.014;2024-03-22T11:59:46;9.27;;;4.40;;
75894;SDS011;64573;50.328;15.014;2024-03-22T12:02:11;9.20;;;4.18;;
75894;SDS011;64573;50.328;15.014;2024-03-22T12:04:41;7.85;;;4.00;;
75894;SDS011;64573;50.328;15.014;2024-03-22T12:07:11;8.30;;;4.50;;
75894;SDS011;64573;50.328;15.014;2024-03-22T12:09:38;8.45;;;4.70;;
75894;SDS011;64573;50.328;15.014;2024-03-22T12:12:04;8.48;;;4.57;;
75894;SDS011;64573;50.328;15.014;2024-03-22T12:14:33;7.25;;;3.88;;
75894;SDS011;64573;50.328;15.014;2024-03-22T12:16:58;9.32;;;4.43;;
75894;SDS011;64573;50.328;15.014;2024-03-22T12:19:24;10.25;;;3.92;;
75894;SDS011;64573;50.328;15.014;2024-03-22T12:21:49;8.50;;;4.25;;
75894;SDS011;64573;50.328;15.014;2024-03-22T12:24:14;7.50;;;3.53;;
75894;SDS011;64573;50.328;15.014;2024-03-22T12:26:40;6.75;;;4.15;;
75894;SDS011;64573;50.328;15.014;2024-03-22T12:29:05;7.55;;;4.05;;
75894;SDS011;64573;50.328;15.014;2024-03-22T12:31:32;7.65;;;3.30;;
75894;SDS011;64573;50.328;15.014;2024-03-22T12:33:57;7.00;;;4.03;;
75894;SDS011;64573;50.328;15.014;2024-03-22T12:36:23;7.47;;;3.75;;
75894;SDS011;64573;50.328;15.014;2024-03-22T12:38:49;8.48;;;4.28;;
75894;SDS011;64573;50.328;15.014;2024-03-22T12:41:14;6.88;;;3.90;;
75894;SDS011;64573;50.328;15.014;2024-03-22T12:43:40;7.95;;;3.85;;
75894;SDS011;64573;50.328;15.014;2024-03-22T12:46:07;5.75;;;3.70;;
75894;SDS011;64573;50.328;15.014;2024-03-22T12:48:33;8.63;;;3.72;;
75894;SDS011;64573;50.328;15.014;2024-03-22T12:50:58;7.90;;;4.22;;
75894;SDS011;64573;50.328;15.014;2024-03-22T12:53:25;7.22;;;3.47;;
75894;SDS011;64573;50.328;15.014;2024-03-22T12:55:50;6.65;;;3.00;;
75894;SDS011;64573;50.328;15.014;2024-03-22T12:58:16;5.10;;;3.20;;
75894;SDS011;64573;50.328;15.014;2024-03-22T13:00:41;8.18;;;3.33;;
75894;SDS011;64573;50.328;15.014;2024-03-22T13:03:09;5.95;;;3.15;;
75894;SDS011;64573;50.328;15.014;2024-03-22T13:05:36;6.13;;;3.38;;
75894;SDS011;64573;50.328;15.014;2024-03-22T13:08:02;4.82;;;2.78;;
75894;SDS011;64573;50.328;15.014;2024-03-22T13:10:27;6.63;;;3.33;;
75894;SDS011;64573;50.328;15.014;2024-03-22T13:15:18;6.47;;;3.55;;
75894;SDS011;64573;50.328;15.014;2024-03-22T13:17:43;6.60;;;3.58;;
75894;SDS011;64573;50.328;15.014;2024-03-22T13:20:09;4.53;;;2.67;;
75894;SDS011;64573;50.328;15.014;2024-03-22T13:22:35;5.38;;;3.42;;
75894;SDS011;64573;50.328;15.014;2024-03-22T13:25:02;8.13;;;2.90;;
75894;SDS011;64573;50.328;15.014;2024-03-22T13:27:31;6.90;;;2.45;;
75894;SDS011;64573;50.328;15.014;2024-03-22T13:29:56;4.97;;;2.92;;
75894;SDS011;64573;50.328;15.014;2024-03-22T13:32:25;5.97;;;2.97;;
75894;SDS011;64573;50.328;15.014;2024-03-22T13:34:51;6.07;;;2.95;;
75894;SDS011;64573;50.328;15.014;2024-03-22T13:37:17;6.75;;;3.33;;
75894;SDS011;64573;50.328;15.014;2024-03-22T13:39:42;5.55;;;3.00;;
75894;SDS011;64573;50.328;15.014;2024-03-22T13:42:07;5.55;;;3.20;;
75894;SDS011;64573;50.328;15.014;2024-03-22T13:44:34;15.45;;;3.30;;
75894;SDS011;64573;50.328;15.014;2024-03-22T13:46:59;7.97;;;3.60;;
75894;SDS011;64573;50.328;15.014;2024-03-22T13:49:25;8.60;;;4.15;;
75894;SDS011;64573;50.328;15.014;2024-03-22T13:51:50;6.43;;;3.58;;
75894;SDS011;64573;50.328;15.014;2024-03-22T13:54:16;7.90;;;4.47;;
75894;SDS011;64573;50.328;15.014;2024-03-22T13:56:41;8.05;;;4.10;;
75894;SDS011;64573;50.328;15.014;2024-03-22T13:59:07;7.45;;;4.30;;
75894;SDS011;64573;50.328;15.014;2024-03-22T14:01:37;7.38;;;4.18;;
75894;SDS011;64573;50.328;15.014;2024-03-22T14:04:03;7.20;;;3.88;;
75894;SDS011;64573;50.328;15.014;2024-03-22T14:06:30;7.53;;;4.05;;
75894;SDS011;64573;50.328;15.014;2024-03-22T14:08:56;6.53;;;3.63;;
75894;SDS011;64573;50.328;15.014;2024-03-22T14:11:25;7.00;;;4.57;;
75894;SDS011;64573;50.328;15.014;2024-03-22T14:13:52;11.00;;;4.10;;
75894;SDS011;64573;50.328;15.014;2024-03-22T14:16:17;9.48;;;4.45;;
75894;SDS011;64573;50.328;15.014;2024-03-22T14:18:43;7.72;;;4.40;;
75894;SDS011;64573;50.328;15.014;2024-03-22T14:21:08;9.60;;;4.72;;
75894;SDS011;64573;50.328;15.014;2024-03-22T14:23:33;10.85;;;5.15;;